Time;durP1;ratioP1;P1;durP2;ratioP2;P2;SDS_P1;SDS_P2;PMS_P1;PMS_P2;Temp;Humidity;BMP_temperature;BMP_pressure;BME280_temperature;BME280_humidity;BME280_pressure;Samples;Min_cycle;Max_cycle;Signal;HPM_P1;HPM_P2
2023/02/28 00:00:35;;;;;;;12.37;5.30;;;0.10;99.90;;;;;;5071317;28;20048;-56
2023/02/28 00:03:01;;;;;;;14.13;5.37;;;0.20;99.90;;;;;;5071213;28;20025;-57
2023/02/28 00:05:28;;;;;;;11.67;5.00;;;0.10;99.90;;;;;;5070875;28;20029;-57
2023/02/28 00:07:55;;;;;;;13.47;5.30;;;0.10;99.90;;;;;;5070885;28;20032;-57
2023/02/28 00:10:23;;;;;;;14.10;5.30;;;0.10;99.90;;;;;;5053391;28;20485;-57
2023/02/28 00:12:51;;;;;;;15.43;5.85;;;0.00;99.90;;;;;;5070889;28;20063;-57
2023/02/28 00:15:17;;;;;;;10.30;5.17;;;0.00;99.90;;;;;;5070825;28;20121;-57
2023/02/28 00:17:44;;;;;;;16.63;5.53;;;0.00;99.90;;;;;;5070796;28;20035;-57
2023/02/28 00:20:12;;;;;;;11.10;5.50;;;-0.10;99.90;;;;;;5071161;28;20504;-57
2023/02/28 00:22:46;;;;;;;10.97;5.77;;;-0.10;99.90;;;;;;5070893;28;20032;-57
2023/02/28 00:25:14;;;;;;;14.23;5.63;;;-0.10;99.90;;;;;;5070600;28;20503;-57
2023/02/28 00:27:40;;;;;;;9.97;5.53;;;-0.10;99.90;;;;;;5070461;28;20034;-57
2023/02/28 00:30:09;;;;;;;14.17;5.37;;;-0.10;99.90;;;;;;5070783;28;20111;-57
2023/02/28 00:32:36;;;;;;;9.87;5.10;;;-0.20;99.90;;;;;;5036552;28;20032;-59
2023/02/28 00:35:03;;;;;;;9.90;5.13;;;-0.10;99.90;;;;;;5070517;28;20462;-57
2023/02/28 00:37:29;;;;;;;11.53;5.13;;;-0.10;99.90;;;;;;5070434;28;20116;-57
2023/02/28 00:39:55;;;;;;;11.47;5.20;;;-0.10;99.90;;;;;;5070494;28;20545;-57
2023/02/28 00:42:22;;;;;;;10.87;5.20;;;-0.10;99.90;;;;;;5052593;28;20052;-57
2023/02/28 00:44:47;;;;;;;9.53;5.40;;;-0.10;99.90;;;;;;5070444;28;20380;-57
2023/02/28 00:47:14;;;;;;;12.57;5.20;;;-0.10;99.90;;;;;;5070305;28;20104;-57
2023/02/28 00:49:40;;;;;;;10.73;5.10;;;-0.10;99.90;;;;;;5052643;28;20028;-57
2023/02/28 00:52:06;;;;;;;11.23;5.23;;;-0.10;99.90;;;;;;5036067;28;20380;-57
2023/02/28 00:54:31;;;;;;;12.87;5.57;;;-0.20;99.90;;;;;;5070209;28;20024;-57
2023/02/28 00:56:57;;;;;;;14.20;5.43;;;-0.20;99.90;;;;;;5052091;28;20386;-57
2023/02/28 00:59:24;;;;;;;10.47;5.20;;;-0.20;99.90;;;;;;5052495;28;20029;-57
2023/02/28 01:01:50;;;;;;;14.13;5.77;;;-0.20;99.90;;;;;;5052446;28;20039;-57
2023/02/28 01:04:16;;;;;;;12.60;5.13;;;-0.30;99.90;;;;;;5069554;28;20031;-56
2023/02/28 01:06:41;;;;;;;11.43;5.40;;;-0.30;99.90;;;;;;5069826;28;20028;-56
2023/02/28 01:09:10;;;;;;;9.93;5.10;;;-0.30;99.90;;;;;;5052300;28;20479;-57
2023/02/28 01:11:36;;;;;;;10.80;5.37;;;-0.30;99.90;;;;;;5070405;28;20036;-57
2023/02/28 01:14:01;;;;;;;13.53;5.20;;;-0.30;99.90;;;;;;5070422;28;20104;-56
2023/02/28 01:16:28;;;;;;;12.47;5.53;;;-0.40;99.90;;;;;;5070490;28;20422;-57
2023/02/28 01:18:53;;;;;;;12.47;5.40;;;-0.40;99.90;;;;;;5070160;28;20129;-56
2023/02/28 01:21:20;;;;;;;13.33;4.93;;;-0.40;99.90;;;;;;5070317;28;20110;-56
2023/02/28 01:23:47;;;;;;;13.37;5.10;;;-0.40;99.90;;;;;;5069934;28;20036;-57
2023/02/28 01:26:22;;;;;;;12.37;5.70;;;-0.40;99.90;;;;;;5070300;28;20039;-57
2023/02/28 01:28:49;;;;;;;9.80;4.83;;;-0.40;99.90;;;;;;5070072;28;20033;-60
2023/02/28 01:31:15;;;;;;;8.57;4.57;;;-0.40;99.90;;;;;;5052167;28;20024;-57
2023/02/28 01:33:42;;;;;;;12.23;5.27;;;-0.40;99.90;;;;;;5069998;28;20047;-57
2023/02/28 01:36:12;;;;;;;8.40;4.70;;;-0.40;99.90;;;;;;5069935;28;20033;-57
2023/02/28 01:38:38;;;;;;;11.20;4.63;;;-0.40;99.90;;;;;;5069633;28;20044;-57
2023/02/28 01:41:05;;;;;;;11.13;4.07;;;-0.40;99.90;;;;;;5069993;28;20029;-57
2023/02/28 01:43:54;;;;;;;9.97;4.20;;;-0.40;99.90;;;;;;5069838;28;20021;-59
2023/02/28 01:46:20;;;;;;;9.03;4.60;;;-0.40;99.90;;;;;;5069861;28;20043;-56
2023/02/28 01:49:03;;;;;;;9.07;4.13;;;-0.40;99.90;;;;;;5051703;28;20046;-56
2023/02/28 01:51:46;;;;;;;8.30;4.23;;;-0.40;99.90;;;;;;5070109;28;20435;-56
2023/02/28 01:54:16;;;;;;;8.80;4.23;;;-0.40;99.90;;;;;;5069737;28;20974;-56
2023/02/28 01:57:04;;;;;;;9.17;3.87;;;-0.50;99.90;;;;;;5069541;28;20478;-57
2023/02/28 01:59:58;;;;;;;10.57;4.43;;;-0.50;99.90;;;;;;5051937;28;20024;-56
2023/02/28 02:02:25;;;;;;;7.30;3.80;;;-0.50;99.90;;;;;;5069930;28;20036;-56
2023/02/28 02:05:01;;;;;;;9.50;4.10;;;-0.50;99.90;;;;;;5069540;28;20437;-57
2023/02/28 02:07:32;;;;;;;7.37;3.63;;;-0.60;99.90;;;;;;5069462;28;20059;-57
2023/02/28 02:10:25;;;;;;;11.73;4.17;;;-0.60;99.90;;;;;;5069693;28;20977;-57
2023/02/28 02:13:08;;;;;;;8.37;3.90;;;-0.60;99.90;;;;;;5045689;28;20032;-57
2023/02/28 02:15:41;;;;;;;10.20;4.00;;;-0.60;99.90;;;;;;5069444;28;20451;-57
2023/02/28 02:18:33;;;;;;;8.90;3.87;;;-0.60;99.90;;;;;;5055109;28;20529;-57
2023/02/28 02:21:37;;;;;;;6.77;3.17;;;-0.60;99.90;;;;;;5055318;28;20032;-57
2023/02/28 02:24:40;;;;;;;11.07;4.00;;;-0.60;99.90;;;;;;5072920;28;20074;-57
2023/02/28 02:27:40;;;;;;;10.00;3.80;;;-0.60;99.90;;;;;;5072880;28;20522;-57
2023/02/28 02:30:33;;;;;;;9.00;3.85;;;-0.60;99.90;;;;;;5073094;28;20430;-57
2023/02/28 02:33:09;;;;;;;11.53;4.27;;;-0.70;99.90;;;;;;5072950;28;20488;-57
2023/02/28 02:35:47;;;;;;;11.13;4.10;;;-0.70;99.90;;;;;;5072787;28;20067;-57
2023/02/28 02:38:23;;;;;;;11.27;4.40;;;-0.70;99.90;;;;;;5054620;28;20458;-57
2023/02/28 02:41:19;;;;;;;11.10;3.87;;;-0.70;99.90;;;;;;5072708;28;20029;-57
2023/02/28 02:43:51;;;;;;;8.07;3.60;;;-0.70;99.90;;;;;;5054612;28;20442;-57
2023/02/28 02:46:32;;;;;;;9.80;3.87;;;-0.80;99.90;;;;;;5072765;28;20427;-57
2023/02/28 02:49:00;;;;;;;7.73;3.70;;;-0.80;99.90;;;;;;5054727;28;20036;-58
2023/02/28 02:51:30;;;;;;;7.20;2.85;;;-0.80;99.90;;;;;;5072885;28;20432;-57
2023/02/28 02:54:11;;;;;;;7.72;3.55;;;-0.80;99.90;;;;;;5054498;28;20089;-57
2023/02/28 02:56:42;;;;;;;8.97;3.37;;;-0.90;99.90;;;;;;5054397;28;20065;-57
2023/02/28 02:59:12;;;;;;;11.80;4.05;;;-0.90;99.90;;;;;;5072672;28;20785;-58
2023/02/28 03:01:40;;;;;;;9.53;4.40;;;-1.00;99.90;;;;;;5054499;28;20503;-57
2023/02/28 03:04:11;;;;;;;10.52;3.83;;;-1.00;99.90;;;;;;5072258;28;20431;-57
2023/02/28 03:06:38;;;;;;;10.03;3.90;;;-1.10;99.90;;;;;;5054168;28;20129;-57
2023/02/28 03:09:04;;;;;;;8.80;3.80;;;-1.10;99.90;;;;;;5054150;28;20608;-57
2023/02/28 03:11:31;;;;;;;8.80;3.80;;;-1.10;99.90;;;;;;5072195;28;20033;-57
2023/02/28 03:14:05;;;;;;;9.30;3.50;;;-1.10;99.90;;;;;;5053946;28;20401;-57
2023/02/28 03:16:57;;;;;;;7.17;3.43;;;-1.20;99.90;;;;;;5053866;28;20594;-57
2023/02/28 03:19:52;;;;;;;8.03;3.70;;;-1.20;99.90;;;;;;5054185;28;20427;-57
2023/02/28 03:22:33;;;;;;;9.53;3.67;;;-1.20;99.90;;;;;;5054266;28;20498;-57
2023/02/28 03:25:18;;;;;;;7.33;3.23;;;-1.20;99.90;;;;;;5053904;28;20768;-57
2023/02/28 03:28:05;;;;;;;8.67;3.90;;;-1.20;99.90;;;;;;5070781;28;20434;-57
2023/02/28 03:30:57;;;;;;;9.70;3.03;;;-1.20;99.90;;;;;;5071940;28;20790;-57
2023/02/28 03:33:33;;;;;;;6.23;3.03;;;-1.30;99.90;;;;;;5071767;28;21014;-57
2023/02/28 03:36:03;;;;;;;8.67;3.70;;;-1.20;99.90;;;;;;5071683;28;20462;-57
2023/02/28 03:38:38;;;;;;;7.90;3.30;;;-1.20;99.90;;;;;;5071351;28;20458;-57
2023/02/28 03:41:12;;;;;;;6.77;3.33;;;-1.20;99.90;;;;;;5071730;28;20462;-57
2023/02/28 03:43:41;;;;;;;7.50;3.80;;;-1.20;99.90;;;;;;5071408;28;20529;-57
2023/02/28 03:46:11;;;;;;;7.85;3.30;;;-1.20;99.90;;;;;;5071753;28;20437;-56
2023/02/28 03:48:46;;;;;;;7.03;3.33;;;-1.20;99.90;;;;;;5053272;28;20032;-57
2023/02/28 03:51:17;;;;;;;11.43;3.50;;;-1.30;99.90;;;;;;5071494;28;20462;-57
2023/02/28 03:53:54;;;;;;;9.33;3.50;;;-1.30;99.90;;;;;;5071594;28;20431;-57
2023/02/28 03:56:27;;;;;;;6.73;3.37;;;-1.30;99.90;;;;;;5071184;28;20511;-57
2023/02/28 03:59:21;;;;;;;14.40;3.93;;;-1.30;99.90;;;;;;5071375;28;20427;-58
2023/02/28 04:01:51;;;;;;;11.33;4.03;;;-1.30;99.90;;;;;;5071274;28;20517;-58
2023/02/28 04:04:17;;;;;;;8.80;4.00;;;-1.30;99.90;;;;;;5070991;28;20771;-56
2023/02/28 04:06:45;;;;;;;10.37;4.00;;;-1.30;99.90;;;;;;5071077;28;20423;-56
2023/02/28 04:09:13;;;;;;;13.30;4.60;;;-1.30;99.90;;;;;;5071038;28;20484;-56
2023/02/28 04:11:40;;;;;;;8.37;4.00;;;-1.30;99.90;;;;;;5071113;28;20462;-56
2023/02/28 04:14:07;;;;;;;9.47;4.43;;;-1.40;99.90;;;;;;5070946;28;20818;-56
2023/02/28 04:16:35;;;;;;;10.50;4.23;;;-1.40;99.90;;;;;;5052686;28;20830;-57
2023/02/28 04:19:04;;;;;;;9.07;4.13;;;-1.40;99.90;;;;;;5070911;28;20427;-57
2023/02/28 04:21:45;;;;;;;8.80;4.00;;;-1.40;99.90;;;;;;5071118;28;20439;-57
2023/02/28 04:24:14;;;;;;;8.00;4.00;;;-1.50;99.90;;;;;;5070651;28;20074;-58
2023/02/28 04:26:43;;;;;;;11.20;4.20;;;-1.50;99.90;;;;;;5070697;28;20435;-56
2023/02/28 04:29:11;;;;;;;9.57;3.95;;;-1.50;99.90;;;;;;5070748;28;20434;-58
2023/02/28 04:31:38;;;;;;;8.73;4.27;;;-1.50;99.90;;;;;;5071005;28;20465;-57
2023/02/28 04:34:03;;;;;;;8.50;4.23;;;-1.50;99.90;;;;;;5070466;28;20492;-57
2023/02/28 04:36:29;;;;;;;12.07;4.10;;;-1.50;99.90;;;;;;5070366;28;20454;-57
2023/02/28 04:38:56;;;;;;;9.70;4.70;;;-1.50;99.90;;;;;;5070368;28;20547;-57
2023/02/28 04:41:22;;;;;;;9.07;4.00;;;-1.50;99.90;;;;;;5070646;28;20111;-58
2023/02/28 04:43:48;;;;;;;8.83;4.13;;;-1.50;99.90;;;;;;5070431;28;20419;-57
2023/02/28 04:46:15;;;;;;;8.40;4.20;;;-1.50;99.90;;;;;;5070682;28;20422;-57
2023/02/28 04:48:41;;;;;;;10.03;4.03;;;-1.50;99.90;;;;;;5070429;28;20442;-57
2023/02/28 04:51:14;;;;;;;8.23;4.10;;;-1.50;99.90;;;;;;5070591;28;20526;-57
2023/02/28 04:53:42;;;;;;;11.43;4.10;;;-1.50;99.90;;;;;;5052196;28;20438;-57
2023/02/28 04:56:11;;;;;;;9.37;3.63;;;-1.50;99.90;;;;;;5070822;28;20990;-57
2023/02/28 04:58:37;;;;;;;8.93;4.15;;;-1.50;99.90;;;;;;5035529;28;21073;-57
2023/02/28 05:01:16;;;;;;;8.17;4.07;;;-1.60;99.90;;;;;;5070500;28;20112;-57
2023/02/28 05:03:42;;;;;;;7.88;4.20;;;-1.60;99.90;;;;;;5070274;28;20064;-57
2023/02/28 05:06:09;;;;;;;10.37;4.23;;;-1.60;99.90;;;;;;5070574;28;20253;-57
2023/02/28 05:08:35;;;;;;;9.67;4.00;;;-1.60;99.90;;;;;;5070049;28;20466;-57
2023/02/28 05:11:02;;;;;;;12.27;4.30;;;-1.60;99.90;;;;;;5070365;28;20443;-57
2023/02/28 05:13:28;;;;;;;9.77;3.67;;;-1.70;99.90;;;;;;5070042;28;20032;-57
2023/02/28 05:15:55;;;;;;;9.67;3.93;;;-1.70;99.90;;;;;;5070302;28;20467;-56
2023/02/28 05:18:21;;;;;;;7.90;3.87;;;-1.70;99.90;;;;;;5052051;28;20848;-57
2023/02/28 05:20:46;;;;;;;8.77;3.70;;;-1.70;99.90;;;;;;5070211;28;20486;-57
2023/02/28 05:23:13;;;;;;;8.03;3.50;;;-1.70;99.90;;;;;;5070112;28;20035;-57
2023/02/28 05:25:39;;;;;;;8.20;3.70;;;-1.70;99.90;;;;;;5069962;28;20039;-57
2023/02/28 05:28:05;;;;;;;10.33;4.00;;;-1.70;99.90;;;;;;5070098;28;20541;-56
2023/02/28 05:30:31;;;;;;;11.13;3.60;;;-1.80;99.90;;;;;;5070223;28;20863;-57
2023/02/28 05:32:58;;;;;;;7.97;3.23;;;-1.80;99.90;;;;;;5070107;28;20550;-57
2023/02/28 05:35:25;;;;;;;6.97;3.20;;;-1.80;99.90;;;;;;5052199;28;20451;-57
2023/02/28 05:37:50;;;;;;;9.33;3.50;;;-1.80;99.90;;;;;;5069881;28;20532;-57
2023/02/28 05:40:17;;;;;;;8.40;3.70;;;-1.70;99.90;;;;;;5070094;28;20469;-57
2023/02/28 05:42:42;;;;;;;8.20;3.93;;;-1.70;99.90;;;;;;5070194;28;20569;-56
2023/02/28 05:45:09;;;;;;;10.67;3.80;;;-1.80;99.90;;;;;;5069905;28;20549;-58
2023/02/28 05:47:35;;;;;;;10.83;4.40;;;-1.80;99.90;;;;;;5069699;28;20496;-58
2023/02/28 05:50:01;;;;;;;7.77;3.40;;;-1.80;99.90;;;;;;5069903;28;20426;-58
2023/02/28 05:52:27;;;;;;;7.93;2.80;;;-1.70;99.90;;;;;;5073139;28;20036;-54
2023/02/28 05:54:53;;;;;;;6.10;2.80;;;-1.80;99.90;;;;;;5073448;28;20477;-57
2023/02/28 05:57:19;;;;;;;6.70;3.10;;;-1.80;99.90;;;;;;5073256;28;20474;-56
2023/02/28 05:59:44;;;;;;;7.00;3.00;;;-1.80;99.90;;;;;;5073677;28;20031;-56
2023/02/28 06:02:15;;;;;;;7.23;3.00;;;-1.80;99.90;;;;;;5073528;28;20031;-56
2023/02/28 06:04:42;;;;;;;7.40;3.00;;;-1.70;99.90;;;;;;5073330;28;20495;-56
2023/02/28 06:07:08;;;;;;;6.77;3.07;;;-1.70;99.90;;;;;;5073198;28;20803;-58
2023/02/28 06:09:34;;;;;;;8.80;2.63;;;-1.70;99.90;;;;;;5073430;28;20522;-58
2023/02/28 06:12:03;;;;;;;7.40;2.73;;;-1.70;99.90;;;;;;5073644;28;20431;-57
2023/02/28 06:14:31;;;;;;;6.90;2.80;;;-1.70;99.90;;;;;;5073217;28;20435;-56
2023/02/28 06:16:57;;;;;;;6.73;2.73;;;-1.70;99.90;;;;;;5073002;28;20397;-57
2023/02/28 06:19:25;;;;;;;7.83;2.70;;;-1.70;99.90;;;;;;5073145;28;20845;-57
2023/02/28 06:21:54;;;;;;;11.13;3.43;;;-1.70;99.90;;;;;;5073428;28;20982;-57
2023/02/28 06:24:22;;;;;;;7.10;2.65;;;-1.70;99.90;;;;;;5072980;28;20430;-57
2023/02/28 06:26:48;;;;;;;8.20;2.90;;;-1.70;99.90;;;;;;5073012;28;20037;-57
2023/02/28 06:29:18;;;;;;;11.53;2.87;;;-1.70;99.90;;;;;;5073033;28;20461;-57
2023/02/28 06:31:47;;;;;;;8.23;2.60;;;-1.70;99.90;;;;;;5073037;28;20504;-57
2023/02/28 06:34:13;;;;;;;6.80;2.63;;;-1.60;99.90;;;;;;5072829;28;20466;-57
2023/02/28 06:36:40;;;;;;;7.27;2.90;;;-1.60;99.90;;;;;;5072584;28;20552;-56
2023/02/28 06:39:07;;;;;;;7.10;2.60;;;-1.60;99.90;;;;;;5073030;28;20431;-56
2023/02/28 06:41:37;;;;;;;7.10;3.00;;;-1.60;99.90;;;;;;5073014;28;20469;-56
2023/02/28 06:44:14;;;;;;;8.27;2.80;;;-1.60;99.90;;;;;;5072642;28;20521;-56
2023/02/28 06:46:41;;;;;;;6.73;2.73;;;-1.50;99.90;;;;;;5072475;28;20434;-56
2023/02/28 06:49:10;;;;;;;8.97;3.00;;;-1.50;99.90;;;;;;5072749;28;20499;-56
2023/02/28 06:51:41;;;;;;;8.82;3.10;;;-1.50;99.90;;;;;;5072736;28;20437;-56
2023/02/28 06:54:10;;;;;;;8.33;3.10;;;-1.50;99.90;;;;;;5072478;28;20036;-57
2023/02/28 06:56:36;;;;;;;8.95;3.00;;;-1.50;99.90;;;;;;5072259;28;20458;-57
2023/02/28 06:59:03;;;;;;;7.73;3.03;;;-1.50;99.90;;;;;;5072367;28;20036;-56
2023/02/28 07:01:29;;;;;;;6.47;3.03;;;-1.40;99.90;;;;;;5072570;28;20029;-57
2023/02/28 07:03:55;;;;;;;7.27;2.97;;;-1.40;99.90;;;;;;5072302;28;20434;-57
2023/02/28 07:06:24;;;;;;;7.87;3.13;;;-1.40;99.90;;;;;;5072379;28;20435;-57
2023/02/28 07:08:52;;;;;;;7.68;3.67;;;-1.30;99.90;;;;;;5072360;28;20532;-57
2023/02/28 07:11:18;;;;;;;7.83;3.17;;;-1.30;99.90;;;;;;5072253;28;20028;-56
2023/02/28 07:13:44;;;;;;;7.97;3.10;;;-1.20;99.90;;;;;;5071976;28;20446;-56
2023/02/28 07:16:11;;;;;;;6.60;2.93;;;-1.20;99.90;;;;;;5072332;28;20450;-56
2023/02/28 07:18:37;;;;;;;10.13;3.13;;;-1.10;99.90;;;;;;5072107;28;20078;-56
2023/02/28 07:21:06;;;;;;;9.47;3.03;;;-1.10;99.90;;;;;;5072588;28;20425;-56
2023/02/28 07:23:31;;;;;;;6.50;3.00;;;-1.10;99.90;;;;;;5071946;28;20433;-56
2023/02/28 07:25:57;;;;;;;6.87;2.87;;;-1.00;99.90;;;;;;5072064;28;20426;-57
2023/02/28 07:28:23;;;;;;;6.63;2.73;;;-1.00;99.90;;;;;;5071679;28;20094;-57
2023/02/28 07:30:49;;;;;;;6.53;2.83;;;-0.90;99.90;;;;;;5071931;28;20141;-56
2023/02/28 07:33:15;;;;;;;10.57;3.13;;;-0.90;99.90;;;;;;5071852;28;20489;-56
2023/02/28 07:35:41;;;;;;;8.03;2.90;;;-0.80;99.90;;;;;;5071568;28;20483;-56
2023/02/28 07:38:07;;;;;;;5.83;2.93;;;-0.80;99.90;;;;;;5071492;28;20040;-56
2023/02/28 07:40:34;;;;;;;6.83;2.73;;;-0.70;99.90;;;;;;5071717;28;20028;-57
2023/02/28 07:43:01;;;;;;;8.43;3.57;;;-0.40;99.90;;;;;;5071982;28;20028;-57
2023/02/28 07:45:28;;;;;;;7.77;3.10;;;0.10;99.90;;;;;;5071674;28;20035;-57
2023/02/28 07:47:55;;;;;;;9.70;3.50;;;0.40;99.90;;;;;;5071567;28;20036;-57
2023/02/28 07:50:21;;;;;;;10.33;3.20;;;0.60;99.90;;;;;;5071779;28;20028;-57
2023/02/28 07:52:47;;;;;;;12.47;3.33;;;0.80;99.90;;;;;;5071530;28;20024;-57
2023/02/28 07:55:13;;;;;;;9.60;3.30;;;0.80;99.90;;;;;;5071285;28;20085;-57
2023/02/28 07:57:40;;;;;;;8.23;2.90;;;0.90;99.90;;;;;;5071049;28;20036;-57
2023/02/28 08:00:12;;;;;;;8.07;3.20;;;1.10;99.90;;;;;;5071499;28;20024;-57
2023/02/28 08:02:40;;;;;;;8.67;2.80;;;1.20;99.90;;;;;;5071871;28;20048;-57
2023/02/28 08:05:06;;;;;;;7.47;2.90;;;1.20;99.90;;;;;;5071250;28;20480;-57
2023/02/28 08:07:33;;;;;;;9.97;2.70;;;1.20;99.90;;;;;;5071138;28;20037;-57
2023/02/28 08:09:59;;;;;;;8.47;2.93;;;1.10;99.90;;;;;;5071046;28;20044;-57
2023/02/28 08:12:25;;;;;;;8.53;2.97;;;1.10;99.90;;;;;;5071448;28;20040;-57
2023/02/28 08:14:51;;;;;;;8.30;3.20;;;1.10;99.90;;;;;;5070706;28;20033;-57
2023/02/28 08:17:16;;;;;;;8.20;2.57;;;1.10;99.90;;;;;;5070806;28;20039;-57
2023/02/28 08:19:44;;;;;;;7.87;3.07;;;1.10;99.90;;;;;;5071064;28;20028;-57
2023/02/28 08:22:10;;;;;;;7.10;2.73;;;1.20;99.90;;;;;;5071108;28;20082;-57
2023/02/28 08:24:36;;;;;;;6.07;2.67;;;1.30;99.90;;;;;;5070882;28;20032;-57
2023/02/28 08:27:02;;;;;;;8.33;2.97;;;1.50;99.90;;;;;;5070907;28;20541;-57
2023/02/28 08:29:27;;;;;;;8.27;2.43;;;1.80;99.90;;;;;;5071103;28;20047;-57
2023/02/28 08:31:53;;;;;;;4.90;2.33;;;2.00;99.90;;;;;;5071123;28;20040;-57
2023/02/28 08:34:19;;;;;;;4.90;2.60;;;2.40;99.90;;;;;;5071084;28;20035;-57
2023/02/28 08:36:45;;;;;;;6.40;2.63;;;2.70;99.90;;;;;;5052863;28;20032;-57
2023/02/28 08:39:11;;;;;;;8.23;2.67;;;3.10;99.90;;;;;;5053089;28;20496;-58
2023/02/28 08:41:37;;;;;;;6.80;2.73;;;3.20;99.90;;;;;;5071059;28;20473;-57
2023/02/28 08:44:03;;;;;;;7.90;2.73;;;3.10;99.90;;;;;;5070938;28;20025;-56
2023/02/28 08:46:29;;;;;;;5.37;2.27;;;3.00;99.90;;;;;;5070716;28;20028;-58
2023/02/28 08:48:59;;;;;;;6.83;2.33;;;2.90;99.90;;;;;;5070837;28;20362;-58
2023/02/28 08:51:28;;;;;;;5.47;2.53;;;2.70;99.90;;;;;;5070928;28;20046;-56
2023/02/28 08:53:57;;;;;;;5.93;2.80;;;2.80;99.90;;;;;;5070809;28;20036;-55
2023/02/28 08:56:23;;;;;;;6.55;2.67;;;2.70;99.90;;;;;;5070699;28;20342;-56
2023/02/28 08:58:50;;;;;;;6.87;2.63;;;2.80;99.90;;;;;;5070645;28;20465;-56
2023/02/28 09:01:22;;;;;;;6.50;2.70;;;2.70;99.90;;;;;;5070740;28;20029;-58
2023/02/28 09:03:49;;;;;;;5.70;2.30;;;2.90;99.90;;;;;;5070459;28;20039;-56
2023/02/28 09:06:18;;;;;;;4.33;2.40;;;3.00;99.00;;;;;;5070576;28;20149;-58
2023/02/28 09:08:44;;;;;;;5.55;2.22;;;3.10;98.50;;;;;;5070193;28;20034;-56
2023/02/28 09:11:11;;;;;;;7.17;2.53;;;3.20;98.20;;;;;;5070376;28;20029;-56
2023/02/28 09:13:37;;;;;;;5.60;2.67;;;3.50;98.50;;;;;;5070391;28;20037;-56
2023/02/28 09:16:06;;;;;;;4.50;2.20;;;3.70;97.60;;;;;;5070585;28;20136;-57
2023/02/28 09:18:33;;;;;;;6.60;1.90;;;4.00;96.20;;;;;;5070322;28;20396;-57
2023/02/28 09:20:58;;;;;;;5.20;2.00;;;4.30;94.10;;;;;;5072486;28;20090;-57
2023/02/28 09:23:25;;;;;;;5.00;1.90;;;4.50;94.00;;;;;;5070955;28;20465;-57
2023/02/28 09:25:53;;;;;;;4.43;2.43;;;4.60;92.70;;;;;;5072159;28;20059;-57
2023/02/28 09:28:20;;;;;;;4.30;1.85;;;4.50;92.20;;;;;;5074160;28;20033;-57
2023/02/28 09:30:48;;;;;;;5.33;2.20;;;4.60;92.30;;;;;;5074402;28;20040;-58
2023/02/28 09:33:15;;;;;;;5.27;2.10;;;4.90;92.30;;;;;;5074206;28;20090;-57
2023/02/28 09:35:42;;;;;;;5.40;2.10;;;5.00;91.80;;;;;;5073952;28;20024;-57
2023/02/28 09:38:09;;;;;;;4.20;1.80;;;5.10;91.40;;;;;;5073971;28;20056;-57
2023/02/28 09:40:46;;;;;;;3.80;1.73;;;5.10;90.10;;;;;;5074134;28;20044;-57
2023/02/28 09:43:15;;;;;;;3.47;1.80;;;5.60;88.60;;;;;;5073973;28;20016;-57
2023/02/28 09:45:44;;;;;;;4.67;1.93;;;6.00;85.10;;;;;;5073650;28;20024;-57
2023/02/28 09:48:26;;;;;;;6.95;2.17;;;6.40;87.00;;;;;;5073797;28;20036;-58
2023/02/28 09:50:59;;;;;;;5.67;2.00;;;6.80;83.60;;;;;;5073930;28;20024;-58
2023/02/28 09:53:38;;;;;;;4.30;1.73;;;7.40;81.80;;;;;;5073644;28;20036;-58
2023/02/28 09:56:25;;;;;;;4.77;1.70;;;8.00;76.60;;;;;;5073624;28;20044;-58
2023/02/28 09:58:55;;;;;;;3.80;2.00;;;8.10;73.10;;;;;;5073735;28;20086;-58
2023/02/28 10:01:57;;;;;;;4.47;1.90;;;8.80;72.30;;;;;;5073690;28;20039;-58
2023/02/28 10:04:54;;;;;;;3.57;2.00;;;8.70;71.20;;;;;;5073389;28;20027;-58
2023/02/28 10:07:54;;;;;;;5.07;1.90;;;8.80;70.10;;;;;;5073348;28;20033;-58
2023/02/28 10:10:32;;;;;;;3.33;1.70;;;9.10;70.80;;;;;;5073468;28;20086;-58
2023/02/28 10:13:02;;;;;;;2.80;1.60;;;9.60;67.70;;;;;;5073331;28;20273;-58
2023/02/28 10:15:31;;;;;;;3.13;1.75;;;9.70;67.20;;;;;;5073337;28;20074;-56
2023/02/28 10:18:02;;;;;;;4.60;1.70;;;10.40;65.20;;;;;;5073390;28;20108;-58
2023/02/28 10:20:31;;;;;;;3.20;1.80;;;10.50;64.10;;;;;;5073285;28;20032;-58
2023/02/28 10:23:20;;;;;;;3.47;1.77;;;11.40;62.40;;;;;;5073297;28;20048;-58
2023/02/28 10:25:49;;;;;;;;;;;11.60;61.60;;;;;;5073895;28;20392;-58
2023/02/28 10:28:17;;;;;;;3.03;1.48;;;11.60;62.20;;;;;;5072847;28;19908;-57
2023/02/28 10:30:50;;;;;;;2.60;1.42;;;11.50;58.00;;;;;;5072965;28;20083;-57
2023/02/28 10:33:35;;;;;;;2.85;1.50;;;11.90;57.20;;;;;;5073045;28;20036;-57
2023/02/28 10:36:03;;;;;;;8.77;2.40;;;12.90;54.80;;;;;;5072709;28;20048;-57
2023/02/28 10:38:38;;;;;;;3.78;1.40;;;13.20;53.80;;;;;;5085173;22;20052;-55
2023/02/28 10:41:10;;;;;;;3.67;1.52;;;12.20;52.90;;;;;;5072900;28;20491;-54
2023/02/28 10:43:38;;;;;;;4.50;2.22;;;10.60;54.80;;;;;;5072650;28;20114;-54
2023/02/28 10:46:10;;;;;;;2.65;1.40;;;9.70;59.30;;;;;;5072879;28;20048;-55
2023/02/28 10:48:42;;;;;;;3.10;1.70;;;8.80;58.40;;;;;;5072660;28;20456;-55
2023/02/28 10:51:13;;;;;;;2.67;1.40;;;7.90;59.30;;;;;;5072764;28;20078;-54
2023/02/28 10:53:51;;;;;;;3.70;1.40;;;7.70;62.20;;;;;;5072594;28;20116;-52
2023/02/28 10:56:18;;;;;;;3.67;1.50;;;7.80;61.70;;;;;;5072457;28;20033;-54
2023/02/28 10:59:08;;;;;;;3.97;1.57;;;8.40;60.40;;;;;;5072623;28;20031;-51
2023/02/28 11:01:46;;;;;;;3.20;1.60;;;8.00;59.80;;;;;;5072639;28;20030;-53
2023/02/28 11:04:19;;;;;;;5.20;1.57;;;7.80;60.30;;;;;;5072427;28;20032;-53
2023/02/28 11:06:45;;;;;;;3.40;1.57;;;7.80;61.10;;;;;;5072281;28;20024;-54
2023/02/28 11:09:31;;;;;;;3.70;1.70;;;7.80;62.00;;;;;;5072357;28;20136;-55
2023/02/28 11:11:57;;;;;;;2.93;1.47;;;8.30;62.50;;;;;;5072416;28;20039;-54
2023/02/28 11:14:29;;;;;;;3.37;1.40;;;8.70;60.80;;;;;;5072204;28;20401;-54
2023/02/28 11:17:00;;;;;;;3.00;1.40;;;8.70;60.40;;;;;;5072019;28;20032;-52
2023/02/28 11:19:35;;;;;;;4.30;1.50;;;8.30;59.90;;;;;;5072419;28;20032;-53
2023/02/28 11:22:03;;;;;;;2.83;1.40;;;8.00;60.00;;;;;;5072364;28;20033;-53
2023/02/28 11:24:33;;;;;;;3.73;1.70;;;8.00;60.90;;;;;;5072422;28;20028;-52
2023/02/28 11:26:59;;;;;;;3.03;1.23;;;8.40;61.70;;;;;;5071847;28;20059;-54
2023/02/28 11:29:28;;;;;;;2.63;1.40;;;8.90;59.80;;;;;;5071877;28;20141;-54
2023/02/28 11:32:20;;;;;;;2.70;1.48;;;8.50;60.30;;;;;;5072008;28;20071;-54
2023/02/28 11:34:59;;;;;;;6.63;1.60;;;8.80;58.50;;;;;;5071855;28;20063;-53
2023/02/28 11:37:27;;;;;;;2.33;1.30;;;8.90;58.00;;;;;;5071493;28;20160;-55
2023/02/28 11:39:53;;;;;;;2.50;1.30;;;9.00;58.60;;;;;;5071603;28;20477;-55
2023/02/28 11:42:46;;;;;;;3.67;1.43;;;9.10;57.90;;;;;;5071656;28;20036;-53
2023/02/28 11:45:27;;;;;;;4.03;1.30;;;9.30;57.70;;;;;;5071579;28;20024;-51
2023/02/28 11:48:08;;;;;;;3.27;1.47;;;9.40;57.90;;;;;;5071464;28;20291;-55
2023/02/28 11:51:06;;;;;;;3.47;1.73;;;9.60;57.70;;;;;;5070961;28;20033;-54
2023/02/28 11:53:34;;;;;;;3.57;1.57;;;10.10;56.60;;;;;;5071411;28;20034;-55
2023/02/28 11:56:11;;;;;;;3.47;1.45;;;9.70;56.70;;;;;;5071474;28;20033;-54
2023/02/28 11:58:45;;;;;;;4.13;1.60;;;9.20;56.70;;;;;;5071070;28;20032;-52
2023/02/28 12:01:26;;;;;;;4.03;1.50;;;9.10;57.50;;;;;;5071411;28;20079;-51
2023/02/28 12:04:08;;;;;;;3.53;1.50;;;8.90;60.20;;;;;;5071082;28;20024;-54
2023/02/28 12:06:50;;;;;;;3.23;1.57;;;9.80;57.50;;;;;;5071129;28;20041;-54
2023/02/28 12:09:36;;;;;;;3.25;1.60;;;10.80;55.20;;;;;;5070979;28;20064;-53
2023/02/28 12:12:31;;;;;;;3.88;1.50;;;11.80;54.60;;;;;;5071141;28;20053;-54
2023/02/28 12:15:23;;;;;;;5.45;1.73;;;12.00;52.50;;;;;;5016082;28;20140;-54
2023/02/28 12:18:27;;;;;;;4.05;1.70;;;11.90;51.90;;;;;;5070845;28;20032;-54
2023/02/28 12:21:24;;;;;;;2.90;1.83;;;12.50;52.10;;;;;;5053244;28;20385;-55
2023/02/28 12:23:53;;;;;;;2.95;1.50;;;12.70;50.90;;;;;;5070653;28;20455;-55
2023/02/28 12:26:27;;;;;;;2.30;1.45;;;12.70;51.60;;;;;;5070940;28;20291;-55
2023/02/28 12:29:12;;;;;;;9.80;6.07;;;11.20;51.90;;;;;;5070784;28;20090;-54
2023/02/28 12:31:44;;;;;;;3.67;1.50;;;9.80;56.10;;;;;;5070963;28;20044;-53
2023/02/28 12:34:16;;;;;;;2.87;1.37;;;9.80;56.10;;;;;;5070540;28;20111;-54
2023/02/28 12:36:45;;;;;;;3.63;1.75;;;10.30;54.90;;;;;;5070539;28;20033;-50
2023/02/28 12:39:23;;;;;;;3.47;1.65;;;10.50;54.10;;;;;;5070527;28;20447;-55
2023/02/28 12:41:56;;;;;;;5.82;1.55;;;10.70;56.60;;;;;;5070864;28;20059;-54
2023/02/28 12:44:42;;;;;;;3.00;1.42;;;11.40;55.50;;;;;;5070534;28;20077;-54
2023/02/28 12:47:16;;;;;;;3.30;1.48;;;11.70;53.50;;;;;;5070464;28;20032;-54
2023/02/28 12:49:48;;;;;;;3.42;1.50;;;11.90;53.50;;;;;;5070593;28;20028;-53
2023/02/28 12:52:20;;;;;;;5.75;1.88;;;12.50;52.00;;;;;;5070712;28;20084;-55
2023/02/28 12:54:57;;;;;;;4.28;1.85;;;12.30;51.50;;;;;;5070317;28;20514;-55
2023/02/28 12:57:55;;;;;;;4.32;1.70;;;11.80;52.00;;;;;;5070405;28;20032;-56
2023/02/28 13:00:25;;;;;;;4.22;1.60;;;11.60;52.90;;;;;;5070426;28;20108;-53
2023/02/28 13:03:11;;;;;;;2.47;1.50;;;10.80;53.40;;;;;;5070515;28;20105;-55
2023/02/28 13:06:11;;;;;;;3.53;1.83;;;9.80;55.50;;;;;;5070297;28;20428;-55
2023/02/28 13:09:00;;;;;;;2.83;1.60;;;9.30;58.00;;;;;;5070186;28;20025;-55
2023/02/28 13:11:29;;;;;;;;;;;9.80;57.10;;;;;;5070918;28;20370;-54